sensor_id;sensor_type;location;lat;lon;timestamp;P1;durP1;ratioP1;P2;durP2;ratioP2
22861;SDS011;11598;50.652;6.172;2022-08-01T00:06:16;3.72;;;1.13;;
22861;SDS011;11598;50.652;6.172;2022-08-01T00:16:16;2.90;;;1.05;;
22861;SDS011;11598;50.652;6.172;2022-08-01T00:26:17;4.85;;;1.33;;
22861;SDS011;11598;50.652;6.172;2022-08-01T00:36:17;4.95;;;1.88;;
22861;SDS011;11598;50.652;6.172;2022-08-01T00:46:17;5.95;;;2.80;;
22861;SDS011;11598;50.652;6.172;2022-08-01T00:56:19;8.63;;;4.13;;
22861;SDS011;11598;50.652;6.172;2022-08-01T01:16:23;10.32;;;5.38;;
22861;SDS011;11598;50.652;6.172;2022-08-01T01:36:37;21.02;;;7.50;;
22861;SDS011;11598;50.652;6.172;2022-08-01T01:46:39;14.13;;;7.05;;
22861;SDS011;11598;50.652;6.172;2022-08-01T01:56:41;25.15;;;9.73;;
22861;SDS011;11598;50.652;6.172;2022-08-01T02:06:51;16.73;;;8.48;;
22861;SDS011;11598;50.652;6.172;2022-08-01T02:16:53;15.95;;;6.72;;
22861;SDS011;11598;50.652;6.172;2022-08-01T02:26:59;11.02;;;6.00;;
22861;SDS011;11598;50.652;6.172;2022-08-01T02:37:04;20.58;;;8.70;;
22861;SDS011;11598;50.652;6.172;2022-08-01T02:47:06;26.42;;;9.20;;
22861;SDS011;11598;50.652;6.172;2022-08-01T02:57:07;14.95;;;6.80;;
22861;SDS011;11598;50.652;6.172;2022-08-01T03:07:09;11.88;;;7.32;;
22861;SDS011;11598;50.652;6.172;2022-08-01T03:17:11;17.80;;;8.57;;
22861;SDS011;11598;50.652;6.172;2022-08-01T03:27:13;49.20;;;13.60;;
22861;SDS011;11598;50.652;6.172;2022-08-01T03:37:23;24.80;;;9.80;;
22861;SDS011;11598;50.652;6.172;2022-08-01T03:47:26;36.92;;;12.18;;
22861;SDS011;11598;50.652;6.172;2022-08-01T03:57:31;36.47;;;11.73;;
22861;SDS011;11598;50.652;6.172;2022-08-01T04:07:32;25.02;;;10.95;;
22861;SDS011;11598;50.652;6.172;2022-08-01T04:17:35;20.20;;;9.67;;
22861;SDS011;11598;50.652;6.172;2022-08-01T04:27:36;20.23;;;9.50;;
22861;SDS011;11598;50.652;6.172;2022-08-01T04:37:39;16.52;;;8.18;;
22861;SDS011;11598;50.652;6.172;2022-08-01T04:47:40;21.58;;;10.43;;
22861;SDS011;11598;50.652;6.172;2022-08-01T04:57:43;21.73;;;10.38;;
22861;SDS011;11598;50.652;6.172;2022-08-01T05:07:46;23.63;;;11.07;;
22861;SDS011;11598;50.652;6.172;2022-08-01T05:17:47;23.10;;;11.97;;
22861;SDS011;11598;50.652;6.172;2022-08-01T05:27:47;43.45;;;15.55;;
22861;SDS011;11598;50.652;6.172;2022-08-01T05:37:47;42.67;;;16.70;;
22861;SDS011;11598;50.652;6.172;2022-08-01T05:47:48;33.42;;;14.23;;
22861;SDS011;11598;50.652;6.172;2022-08-01T05:57:48;34.30;;;14.67;;
22861;SDS011;11598;50.652;6.172;2022-08-01T06:07:48;56.28;;;18.75;;
22861;SDS011;11598;50.652;6.172;2022-08-01T06:17:49;40.85;;;15.95;;
22861;SDS011;11598;50.652;6.172;2022-08-01T06:27:49;35.45;;;16.77;;
22861;SDS011;11598;50.652;6.172;2022-08-01T06:37:50;43.60;;;19.38;;
22861;SDS011;11598;50.652;6.172;2022-08-01T06:47:50;46.90;;;17.92;;
22861;SDS011;11598;50.652;6.172;2022-08-01T06:57:51;65.25;;;20.15;;
22861;SDS011;11598;50.652;6.172;2022-08-01T07:07:52;54.92;;;19.17;;
22861;SDS011;11598;50.652;6.172;2022-08-01T07:17:53;35.63;;;16.23;;
22861;SDS011;11598;50.652;6.172;2022-08-01T07:27:53;58.50;;;20.30;;
22861;SDS011;11598;50.652;6.172;2022-08-01T07:37:53;66.97;;;20.02;;
22861;SDS011;11598;50.652;6.172;2022-08-01T07:47:54;55.63;;;19.88;;
22861;SDS011;11598;50.652;6.172;2022-08-01T07:57:54;48.17;;;17.75;;
22861;SDS011;11598;50.652;6.172;2022-08-01T08:07:55;53.88;;;16.95;;
22861;SDS011;11598;50.652;6.172;2022-08-01T08:17:55;37.55;;;15.07;;
22861;SDS011;11598;50.652;6.172;2022-08-01T08:27:56;25.50;;;12.68;;
22861;SDS011;11598;50.652;6.172;2022-08-01T08:37:56;39.38;;;15.18;;
22861;SDS011;11598;50.652;6.172;2022-08-01T08:47:57;50.60;;;18.83;;
22861;SDS011;11598;50.652;6.172;2022-08-01T08:57:58;34.15;;;13.45;;
22861;SDS011;11598;50.652;6.172;2022-08-01T09:08:00;31.40;;;11.00;;
22861;SDS011;11598;50.652;6.172;2022-08-01T09:18:00;21.48;;;8.77;;
22861;SDS011;11598;50.652;6.172;2022-08-01T09:28:02;48.92;;;14.55;;
22861;SDS011;11598;50.652;6.172;2022-08-01T09:38:16;47.83;;;17.63;;
22861;SDS011;11598;50.652;6.172;2022-08-01T09:48:22;72.38;;;16.63;;
22861;SDS011;11598;50.652;6.172;2022-08-01T09:58:23;82.03;;;20.23;;
22861;SDS011;11598;50.652;6.172;2022-08-01T10:08:23;56.85;;;17.63;;
22861;SDS011;11598;50.652;6.172;2022-08-01T10:18:25;48.05;;;16.73;;
22861;SDS011;11598;50.652;6.172;2022-08-01T10:28:28;73.35;;;16.98;;
22861;SDS011;11598;50.652;6.172;2022-08-01T10:38:30;103.28;;;25.17;;
22861;SDS011;11598;50.652;6.172;2022-08-01T10:48:35;55.63;;;15.63;;
22861;SDS011;11598;50.652;6.172;2022-08-01T10:58:43;66.10;;;16.05;;
22861;SDS011;11598;50.652;6.172;2022-08-01T11:08:52;35.83;;;11.88;;
22861;SDS011;11598;50.652;6.172;2022-08-01T11:18:54;51.15;;;15.38;;
22861;SDS011;11598;50.652;6.172;2022-08-01T11:29:11;98.15;;;24.42;;
22861;SDS011;11598;50.652;6.172;2022-08-01T11:39:17;54.08;;;18.77;;
22861;SDS011;11598;50.652;6.172;2022-08-01T11:59:40;43.88;;;19.02;;
22861;SDS011;11598;50.652;6.172;2022-08-01T12:09:47;38.70;;;18.15;;
22861;SDS011;11598;50.652;6.172;2022-08-01T12:19:49;33.78;;;16.58;;
22861;SDS011;11598;50.652;6.172;2022-08-01T12:29:49;34.60;;;16.90;;
22861;SDS011;11598;50.652;6.172;2022-08-01T12:39:50;30.67;;;15.07;;
22861;SDS011;11598;50.652;6.172;2022-08-01T12:49:50;26.20;;;14.10;;
22861;SDS011;11598;50.652;6.172;2022-08-01T13:00:04;30.45;;;14.35;;
22861;SDS011;11598;50.652;6.172;2022-08-01T13:10:06;23.98;;;11.95;;
22861;SDS011;11598;50.652;6.172;2022-08-01T13:20:08;23.67;;;12.90;;
22861;SDS011;11598;50.652;6.172;2022-08-01T13:30:15;28.20;;;14.45;;
22861;SDS011;11598;50.652;6.172;2022-08-01T13:40:24;26.00;;;14.65;;
22861;SDS011;11598;50.652;6.172;2022-08-01T13:50:26;17.98;;;11.25;;
22861;SDS011;11598;50.652;6.172;2022-08-01T14:00:26;16.13;;;10.18;;
22861;SDS011;11598;50.652;6.172;2022-08-01T14:10:27;13.68;;;8.90;;
22861;SDS011;11598;50.652;6.172;2022-08-01T14:20:27;17.10;;;8.63;;
22861;SDS011;11598;50.652;6.172;2022-08-01T14:30:28;13.02;;;7.25;;
22861;SDS011;11598;50.652;6.172;2022-08-01T14:40:28;12.98;;;7.80;;
22861;SDS011;11598;50.652;6.172;2022-08-01T14:50:29;9.77;;;6.10;;
22861;SDS011;11598;50.652;6.172;2022-08-01T15:00:30;8.93;;;6.45;;
22861;SDS011;11598;50.652;6.172;2022-08-01T15:10:31;12.00;;;6.80;;
22861;SDS011;11598;50.652;6.172;2022-08-01T15:20:32;12.80;;;6.18;;
22861;SDS011;11598;50.652;6.172;2022-08-01T15:30:32;9.85;;;5.40;;
22861;SDS011;11598;50.652;6.172;2022-08-01T15:40:34;10.15;;;3.97;;
22861;SDS011;11598;50.652;6.172;2022-08-01T15:50:35;11.65;;;4.65;;
22861;SDS011;11598;50.652;6.172;2022-08-01T16:00:37;14.80;;;4.32;;
22861;SDS011;11598;50.652;6.172;2022-08-01T16:10:38;8.48;;;3.85;;
22861;SDS011;11598;50.652;6.172;2022-08-01T16:20:39;7.10;;;4.10;;
22861;SDS011;11598;50.652;6.172;2022-08-01T16:30:39;9.97;;;3.73;;
22861;SDS011;11598;50.652;6.172;2022-08-01T16:40:40;7.13;;;3.42;;
22861;SDS011;11598;50.652;6.172;2022-08-01T16:50:41;10.38;;;2.83;;
22861;SDS011;11598;50.652;6.172;2022-08-01T17:00:42;4.38;;;2.40;;
22861;SDS011;11598;50.652;6.172;2022-08-01T17:10:44;10.02;;;2.78;;
22861;SDS011;11598;50.652;6.172;2022-08-01T17:20:45;4.07;;;1.83;;
22861;SDS011;11598;50.652;6.172;2022-08-01T17:40:49;4.63;;;2.38;;
22861;SDS011;11598;50.652;6.172;2022-08-01T17:50:49;5.05;;;2.50;;
22861;SDS011;11598;50.652;6.172;2022-08-01T18:00:50;6.90;;;2.03;;
22861;SDS011;11598;50.652;6.172;2022-08-01T18:10:50;5.40;;;2.28;;
22861;SDS011;11598;50.652;6.172;2022-08-01T18:20:50;8.27;;;2.20;;
22861;SDS011;11598;50.652;6.172;2022-08-01T18:30:51;4.40;;;2.10;;
22861;SDS011;11598;50.652;6.172;2022-08-01T18:40:51;4.65;;;1.60;;
22861;SDS011;11598;50.652;6.172;2022-08-01T18:50:52;4.78;;;1.90;;
22861;SDS011;11598;50.652;6.172;2022-08-01T19:00:52;6.27;;;1.87;;
22861;SDS011;11598;50.652;6.172;2022-08-01T19:10:53;6.65;;;1.88;;
22861;SDS011;11598;50.652;6.172;2022-08-01T19:20:53;5.18;;;2.50;;
22861;SDS011;11598;50.652;6.172;2022-08-01T19:30:54;5.03;;;1.80;;
22861;SDS011;11598;50.652;6.172;2022-08-01T19:40:56;5.82;;;1.90;;
22861;SDS011;11598;50.652;6.172;2022-08-01T19:50:57;6.80;;;2.30;;
22861;SDS011;11598;50.652;6.172;2022-08-01T20:01:01;6.17;;;1.90;;
22861;SDS011;11598;50.652;6.172;2022-08-01T20:11:06;6.03;;;2.50;;
22861;SDS011;11598;50.652;6.172;2022-08-01T20:21:08;4.68;;;2.45;;
22861;SDS011;11598;50.652;6.172;2022-08-01T20:31:11;9.97;;;6.73;;
22861;SDS011;11598;50.652;6.172;2022-08-01T20:41:12;6.70;;;2.10;;
22861;SDS011;11598;50.652;6.172;2022-08-01T20:51:12;5.93;;;2.53;;
22861;SDS011;11598;50.652;6.172;2022-08-01T21:01:16;6.10;;;2.17;;
22861;SDS011;11598;50.652;6.172;2022-08-01T21:11:37;6.90;;;2.58;;
22861;SDS011;11598;50.652;6.172;2022-08-01T21:21:55;7.50;;;3.90;;
22861;SDS011;11598;50.652;6.172;2022-08-01T21:32:05;10.75;;;4.18;;
22861;SDS011;11598;50.652;6.172;2022-08-01T21:42:11;6.07;;;2.88;;
22861;SDS011;11598;50.652;6.172;2022-08-01T21:52:13;8.60;;;3.15;;
22861;SDS011;11598;50.652;6.172;2022-08-01T22:02:23;7.28;;;3.38;;
22861;SDS011;11598;50.652;6.172;2022-08-01T22:12:35;5.95;;;3.10;;
22861;SDS011;11598;50.652;6.172;2022-08-01T22:22:35;8.98;;;3.78;;
22861;SDS011;11598;50.652;6.172;2022-08-01T22:32:36;7.40;;;3.03;;
22861;SDS011;11598;50.652;6.172;2022-08-01T22:42:46;6.72;;;3.42;;
22861;SDS011;11598;50.652;6.172;2022-08-01T22:52:56;7.70;;;3.42;;
22861;SDS011;11598;50.652;6.172;2022-08-01T23:03:13;8.77;;;4.18;;
22861;SDS011;11598;50.652;6.172;2022-08-01T23:13:17;9.25;;;4.20;;
22861;SDS011;11598;50.652;6.172;2022-08-01T23:23:19;6.18;;;3.53;;
22861;SDS011;11598;50.652;6.172;2022-08-01T23:33:21;7.57;;;3.13;;
22861;SDS011;11598;50.652;6.172;2022-08-01T23:43:21;17.05;;;4.63;;
22861;SDS011;11598;50.652;6.172;2022-08-01T23:53:22;10.32;;;4.30;;
